Everson, Pennsylvania
Current Conditions -  °F | °C
As of 11:47 AM on Friday 21 Nov 2014 (Local Time) from KLBE Reporting Station
Light Snow Light Snow  
Wind Chill: -9°   Ceiling: 3500
Heat Index: -4°   Visibility: 5mi
Dew Point: -11°   Wind: 9mph
Humidity: 59%   Direction: 300°WNW
Pressure: 30.46"   Gusts: NA
Location:  40.09°N, 79.59°W
Report Text: KLBE 211647Z 30008KT 5SM -SN SCT026 OVC035 M04/M11 A3046
Loading
Personal Weather Stations






























Interactive Weather Map New forecast layout! Learn more

10-Day Weather Forecast

Advertisements
Track Severe Weather on mobile